Time;durP1;ratioP1;P1;durP2;ratioP2;P2;SDS_P1;SDS_P2;PMS_P1;PMS_P2;Temp;Humidity;BMP_temperature;BMP_pressure;BME280_temperature;BME280_humidity;BME280_pressure;Samples;Min_cycle;Max_cycle;Signal;HPM_P1;HPM_P2
2024/04/06 00:01:19;;;;;;;82.57;12.70;;;;;;;16.14;100.00;97881.19;5006026;28;20100;-62
2024/04/06 00:03:45;;;;;;;49.50;10.88;;;;;;;15.88;100.00;97880.97;5007088;28;20034;-60
2024/04/06 00:06:10;;;;;;;64.55;11.00;;;;;;;15.96;100.00;97880.78;5004744;28;20106;-61
2024/04/06 00:08:35;;;;;;;46.55;10.43;;;;;;;15.81;100.00;97875.94;5007388;28;20030;-60
2024/04/06 00:11:01;;;;;;;39.00;8.65;;;;;;;15.86;100.00;97881.91;5006669;28;20038;-62
2024/04/06 00:13:26;;;;;;;86.93;14.50;;;;;;;15.70;100.00;97874.44;5003707;28;20041;-62
2024/04/06 00:15:52;;;;;;;60.65;11.98;;;;;;;15.70;100.00;97878.84;5006445;28;20062;-62
2024/04/06 00:18:17;;;;;;;91.50;13.18;;;;;;;15.54;100.00;97873.09;5005224;28;20361;-62
2024/04/06 00:20:43;;;;;;;64.28;10.70;;;;;;;15.57;100.00;97870.41;5002519;28;20045;-60
2024/04/06 00:23:08;;;;;;;72.80;10.75;;;;;;;15.41;100.00;97870.81;5006728;28;20021;-62
2024/04/06 00:25:33;;;;;;;40.42;8.70;;;;;;;15.39;100.00;97880.47;5004306;28;20046;-62
2024/04/06 00:27:59;;;;;;;33.53;9.10;;;;;;;15.53;100.00;97881.88;5006968;28;20351;-60
2024/04/06 00:30:24;;;;;;;94.30;12.18;;;;;;;15.06;100.00;97885.59;5004513;28;20071;-58
2024/04/06 00:32:49;;;;;;;45.75;8.57;;;;;;;14.89;100.00;97871.16;5004280;28;20037;-61
2024/04/06 00:35:16;;;;;;;67.40;9.25;;;;;;;15.12;100.00;97885.47;5005758;28;20457;-61
2024/04/06 00:37:41;;;;;;;50.13;7.40;;;;;;;15.10;100.00;97880.28;5004554;28;20025;-62
2024/04/06 00:40:07;;;;;;;56.45;8.07;;;;;;;14.87;100.00;97872.94;5005052;28;20025;-61
2024/04/06 00:42:32;;;;;;;42.38;6.78;;;;;;;14.88;100.00;97871.19;5002536;28;20600;-60
2024/04/06 00:44:57;;;;;;;46.40;7.43;;;;;;;14.76;100.00;97875.81;5007635;28;20369;-60
2024/04/06 00:47:23;;;;;;;88.80;11.35;;;;;;;14.91;100.00;97871.09;5004345;28;20172;-61
2024/04/06 00:49:48;;;;;;;49.35;8.73;;;;;;;15.02;100.00;97876.09;5005981;28;20026;-64
2024/04/06 00:52:13;;;;;;;54.58;9.07;;;;;;;15.25;100.00;97888.66;5001324;28;20034;-61
2024/04/06 00:54:39;;;;;;;62.03;9.50;;;;;;;14.98;100.00;97888.41;5006874;28;20355;-64
2024/04/06 00:57:07;;;;;;;50.67;8.73;;;;;;;15.01;100.00;97893.59;5003928;28;20049;-63
2024/04/06 00:59:34;;;;;;;55.13;8.82;;;;;;;14.93;100.00;97896.34;5005407;28;20641;-63
2024/04/06 01:01:59;;;;;;;54.45;8.30;;;;;;;14.86;100.00;97896.53;5004522;28;20030;-61
2024/04/06 01:04:25;;;;;;;82.75;11.02;;;;;;;14.92;100.00;97904.28;5005069;28;20410;-62
2024/04/06 01:06:50;;;;;;;43.78;8.65;;;;;;;14.99;100.00;97905.84;5006112;28;20638;-62
2024/04/06 01:09:15;;;;;;;65.38;9.95;;;;;;;14.78;100.00;97901.97;5004075;28;20018;-61
2024/04/06 01:11:41;;;;;;;51.53;8.98;;;;;;;14.88;100.00;97898.22;5002902;28;20168;-64
2024/04/06 01:14:06;;;;;;;58.00;9.02;;;;;;;14.90;100.00;97892.97;5004710;28;20029;-62
2024/04/06 01:16:31;;;;;;;113.00;12.50;;;;;;;14.54;100.00;97893.69;5003827;28;20072;-62
2024/04/06 01:18:57;;;;;;;39.53;7.88;;;;;;;14.77;100.00;97893.22;5006452;28;20087;-59
2024/04/06 01:21:22;;;;;;;81.72;10.85;;;;;;;14.80;100.00;97893.16;5001565;28;20057;-59
2024/04/06 01:23:52;;;;;;;37.45;7.30;;;;;;;14.61;100.00;97889.19;5009105;28;20119;-63
2024/04/06 01:26:17;;;;;;;57.13;8.68;;;;;;;14.58;100.00;97887.50;5005112;28;20045;-61
2024/04/06 01:28:43;;;;;;;42.60;7.80;;;;;;;14.61;100.00;97895.28;5006018;28;20329;-62
2024/04/06 01:31:09;;;;;;;47.55;8.18;;;;;;;14.92;100.00;97906.91;5006110;28;20506;-60
2024/04/06 01:33:34;;;;;;;60.15;8.75;;;;;;;14.94;100.00;97898.09;5006382;28;20596;-61
2024/04/06 01:36:00;;;;;;;47.90;8.52;;;;;;;14.93;100.00;97906.00;5007278;28;20042;-60
2024/04/06 01:38:25;;;;;;;97.15;10.55;;;;;;;14.89;100.00;97904.34;5004494;28;20402;-59
2024/04/06 01:40:50;;;;;;;78.15;9.38;;;;;;;14.70;100.00;97899.47;5006037;28;20577;-60
2024/04/06 01:43:15;;;;;;;56.63;8.02;;;;;;;14.53;100.00;97905.94;5007328;28;20042;-61
2024/04/06 01:45:41;;;;;;;49.45;7.47;;;;;;;14.93;100.00;97906.00;5006097;28;20091;-61
2024/04/06 01:48:06;;;;;;;81.55;9.38;;;;;;;14.71;100.00;97901.19;5008056;28;20063;-62
2024/04/06 01:50:32;;;;;;;65.75;8.80;;;;;;;14.81;100.00;97899.28;5004942;28;20496;-61
2024/04/06 01:52:57;;;;;;;44.50;7.22;;;;;;;14.78;100.00;97901.97;5006327;28;20029;-60
2024/04/06 01:55:22;;;;;;;69.05;9.10;;;;;;;14.82;100.00;97909.69;5007060;28;20393;-63
2024/04/06 01:57:47;;;;;;;28.98;5.90;;;;;;;15.08;100.00;97904.78;5009937;28;20079;-60
2024/04/06 02:00:14;;;;;;;66.55;8.27;;;;;;;15.07;100.00;97895.22;5004333;28;20689;-59
2024/04/06 02:02:39;;;;;;;52.90;7.65;;;;;;;14.86;100.00;97909.63;5005210;28;20024;-59
2024/04/06 02:05:04;;;;;;;58.15;8.07;;;;;;;14.82;100.00;97914.09;5012234;28;20041;-59
2024/04/06 02:07:30;;;;;;;54.10;8.15;;;;;;;15.05;100.00;97916.19;5009806;28;20036;-62
2024/04/06 02:09:55;;;;;;;73.28;9.55;;;;;;;15.07;100.00;97908.31;5010800;28;20029;-62
2024/04/06 02:12:20;;;;;;;57.78;8.85;;;;;;;14.99;100.00;97918.09;5010888;28;20042;-60
2024/04/06 02:14:47;;;;;;;36.35;7.53;;;;;;;15.15;100.00;97911.63;5012859;28;20026;-62
2024/04/06 02:17:13;;;;;;;49.28;8.15;;;;;;;15.05;100.00;97923.19;5011203;28;20040;-62
2024/04/06 02:19:38;;;;;;;54.10;8.35;;;;;;;14.95;100.00;97915.53;5009620;28;20025;-62
2024/04/06 02:22:03;;;;;;;44.67;7.85;;;;;;;15.14;100.00;97916.88;5009292;28;20076;-61
2024/04/06 02:24:30;;;;;;;60.10;9.20;;;;;;;14.90;100.00;97932.25;5009707;28;20079;-60
2024/04/06 02:26:56;;;;;;;55.35;8.55;;;;;;;14.69;100.00;97923.91;5010210;28;20053;-62
2024/04/06 02:29:21;;;;;;;54.45;8.32;;;;;;;14.84;100.00;97930.59;5011477;28;20064;-59
2024/04/06 02:31:46;;;;;;;39.72;7.40;;;;;;;14.73;100.00;97922.09;5009559;28;20167;-61
2024/04/06 02:34:12;;;;;;;58.33;8.52;;;;;;;14.96;100.00;97917.25;5011911;28;20221;-60
2024/04/06 02:36:38;;;;;;;51.50;8.32;;;;;;;14.66;100.00;97917.00;5010239;28;20057;-63
2024/04/06 02:39:04;;;;;;;51.35;7.72;;;;;;;14.65;100.00;97917.88;5011270;28;20029;-61
2024/04/06 02:41:29;;;;;;;77.97;9.38;;;;;;;14.64;100.00;97921.41;5008288;28;20682;-61
2024/04/06 02:43:54;;;;;;;48.30;7.50;;;;;;;14.65;100.00;97909.16;5011433;28;20097;-58
2024/04/06 02:46:20;;;;;;;65.80;8.63;;;;;;;14.64;100.00;97918.78;5009675;28;20085;-60
2024/04/06 02:48:47;;;;;;;43.72;7.22;;;;;;;14.77;100.00;97919.41;5009886;28;20494;-61
2024/04/06 02:51:13;;;;;;;47.00;7.60;;;;;;;14.45;100.00;97918.31;5008882;28;20069;-60
2024/04/06 02:53:38;;;;;;;45.17;7.22;;;;;;;14.43;100.00;97913.09;5009569;28;20068;-60
2024/04/06 02:56:04;;;;;;;52.58;7.40;;;;;;;14.19;100.00;97912.69;5009919;28;20038;-61
2024/04/06 02:58:29;;;;;;;75.95;8.45;;;;;;;14.30;100.00;97924.72;5008620;28;20076;-61
2024/04/06 03:00:55;;;;;;;72.25;8.93;;;;;;;14.10;100.00;97922.47;5007606;28;20173;-59
2024/04/06 03:03:20;;;;;;;57.97;7.38;;;;;;;14.17;100.00;97917.09;5010996;28;20557;-61
2024/04/06 03:05:47;;;;;;;56.75;7.85;;;;;;;14.24;100.00;97916.97;5009082;28;20038;-61
2024/04/06 03:08:12;;;;;;;52.70;7.07;;;;;;;14.27;100.00;97916.91;5009315;28;20021;-61
2024/04/06 03:10:37;;;;;;;49.40;6.93;;;;;;;14.20;100.00;97916.16;5008811;28;20104;-61
2024/04/06 03:13:03;;;;;;;66.15;8.43;;;;;;;14.40;100.00;97917.53;5011237;28;20022;-63
2024/04/06 03:15:29;;;;;;;60.83;7.50;;;;;;;14.31;100.00;97918.56;5010011;28;20045;-60
2024/04/06 03:17:54;;;;;;;41.75;6.63;;;;;;;14.19;100.00;97909.22;5010596;28;20032;-62
2024/04/06 03:20:19;;;;;;;75.60;8.45;;;;;;;14.11;100.00;97911.13;5008678;28;20069;-61
2024/04/06 03:22:58;;;;;;;48.53;7.78;;;;;;;14.19;100.00;97914.44;5007558;28;20168;-61
2024/04/06 03:25:24;;;;;;;49.97;6.95;;;;;;;14.05;100.00;97905.13;5009331;28;22716;-61
2024/04/06 03:27:49;;;;;;;50.00;7.32;;;;;;;13.92;100.00;97904.47;5010232;28;20036;-62
2024/04/06 03:30:14;;;;;;;61.03;7.40;;;;;;;13.63;100.00;97905.84;5010621;28;20033;-61
2024/04/06 03:32:40;;;;;;;52.22;7.10;;;;;;;13.52;100.00;97905.19;5010709;28;20033;-60
2024/04/06 03:35:05;;;;;;;67.72;8.43;;;;;;;13.54;100.00;97901.66;5009618;28;20033;-61
2024/04/06 03:37:31;;;;;;;68.55;8.32;;;;;;;13.59;100.00;97904.16;5011367;28;20034;-62
2024/04/06 03:39:56;;;;;;;66.45;7.93;;;;;;;13.67;100.00;97910.13;5010523;28;20033;-62
2024/04/06 03:42:24;;;;;;;66.38;7.93;;;;;;;13.75;100.00;97910.00;5008521;28;20175;-59
2024/04/06 03:44:50;;;;;;;42.65;6.80;;;;;;;13.66;100.00;97905.78;5009852;28;20468;-61
2024/04/06 03:47:15;;;;;;;51.10;6.93;;;;;;;13.69;100.00;97910.09;5008903;28;20537;-61
2024/04/06 03:49:40;;;;;;;74.10;8.07;;;;;;;13.52;100.00;97907.78;5006528;28;20565;-60
2024/04/06 03:52:06;;;;;;;37.25;6.28;;;;;;;13.44;100.00;97901.78;5007134;28;20037;-61
2024/04/06 03:54:31;;;;;;;72.20;8.85;;;;;;;13.47;100.00;97909.59;5007975;28;20071;-61
2024/04/06 03:56:56;;;;;;;60.20;7.40;;;;;;;13.36;100.00;97905.38;5007557;28;20069;-61
2024/04/06 03:59:22;;;;;;;60.60;7.45;;;;;;;13.47;100.00;97910.44;5008660;28;20026;-60
2024/04/06 04:01:47;;;;;;;38.58;6.55;;;;;;;13.58;100.00;97918.13;5005470;28;20068;-60
2024/04/06 04:04:12;;;;;;;59.15;7.68;;;;;;;13.56;100.00;97917.31;5008470;28;20482;-61
2024/04/06 04:06:37;;;;;;;87.10;10.07;;;;;;;13.64;100.00;97925.88;5007015;28;20172;-62
2024/04/06 04:09:03;;;;;;;62.25;8.13;;;;;;;13.66;100.00;97916.25;5008404;28;20014;-59
2024/04/06 04:11:28;;;;;;;55.33;7.53;;;;;;;13.61;100.00;97920.69;5006985;28;20085;-63
2024/04/06 04:13:53;;;;;;;56.17;7.43;;;;;;;13.52;100.00;97920.84;5008096;28;20158;-62
2024/04/06 04:16:19;;;;;;;60.70;7.75;;;;;;;13.67;100.00;97917.97;5005994;28;20648;-63
2024/04/06 04:18:44;;;;;;;44.35;7.25;;;;;;;13.46;100.00;97921.78;5007304;28;20426;-60
2024/04/06 04:21:09;;;;;;;59.00;7.90;;;;;;;13.37;100.00;97920.16;5003804;28;20037;-61
2024/04/06 04:23:34;;;;;;;76.63;9.25;;;;;;;13.44;100.00;97918.34;5005656;28;20017;-62
2024/04/06 04:26:00;;;;;;;45.97;7.22;;;;;;;13.44;100.00;97920.09;5009117;28;20044;-62
2024/04/06 04:28:25;;;;;;;73.07;9.43;;;;;;;13.61;100.00;97920.69;5006022;28;20567;-61
2024/04/06 04:30:51;;;;;;;76.07;9.18;;;;;;;13.52;100.00;97918.25;5007399;28;20709;-62
2024/04/06 04:33:17;;;;;;;50.08;7.60;;;;;;;13.62;100.00;97925.03;5007610;28;20040;-62
2024/04/06 04:35:43;;;;;;;55.72;7.85;;;;;;;13.65;100.00;97924.97;5009220;28;20037;-62
2024/04/06 04:38:08;;;;;;;63.60;7.80;;;;;;;13.28;100.00;97928.16;5007417;28;20040;-62
2024/04/06 04:40:33;;;;;;;61.17;7.97;;;;;;;13.45;100.00;97940.97;5007497;28;22354;-61
2024/04/06 04:42:59;;;;;;;42.35;7.10;;;;;;;13.45;100.00;97953.16;5008334;28;20029;-60
2024/04/06 04:45:24;;;;;;;71.65;8.55;;;;;;;13.15;100.00;97953.59;5008138;28;20087;-62
2024/04/06 04:47:49;;;;;;;38.72;6.60;;;;;;;13.10;100.00;97956.25;5007621;28;20111;-62
2024/04/06 04:50:15;;;;;;;52.13;8.05;;;;;;;13.31;100.00;97955.97;5005551;28;20124;-61
2024/04/06 04:52:41;;;;;;;62.17;8.95;;;;;;;13.34;100.00;97958.53;5005123;28;20117;-60
2024/04/06 04:55:06;;;;;;;54.70;8.70;;;;;;;13.57;100.00;97968.66;5006994;28;20090;-64
2024/04/06 04:57:32;;;;;;;76.78;9.93;;;;;;;13.71;100.00;97973.69;5007877;28;20041;-61
2024/04/06 04:59:57;;;;;;;82.85;9.45;;;;;;;13.87;100.00;97973.41;5005730;28;20116;-63
2024/04/06 05:02:23;;;;;;;44.67;7.07;;;;;;;13.72;100.00;97970.19;5004541;28;20091;-63
2024/04/06 05:04:48;;;;;;;44.42;7.68;;;;;;;13.76;100.00;97968.34;5008854;28;20026;-61
2024/04/06 05:07:14;;;;;;;55.17;8.15;;;;;;;13.84;100.00;97971.72;5007130;28;20035;-60
2024/04/06 05:09:39;;;;;;;67.32;8.80;;;;;;;13.88;100.00;97968.16;5004269;28;20498;-65
2024/04/06 05:12:05;;;;;;;47.83;7.50;;;;;;;13.85;100.00;97972.59;5005333;28;20037;-63
2024/04/06 05:14:30;;;;;;;85.90;10.35;;;;;;;13.84;100.00;97963.88;5005507;28;20105;-63
2024/04/06 05:16:56;;;;;;;54.13;7.60;;;;;;;13.91;100.00;97960.28;5004530;28;20084;-61
2024/04/06 05:19:21;;;;;;;55.25;8.75;;;;;;;14.01;100.00;97962.72;5007519;28;20017;-62
2024/04/06 05:21:47;;;;;;;47.78;7.45;;;;;;;13.89;100.00;97967.25;5003334;28;20041;-64
2024/04/06 05:24:12;;;;;;;74.43;9.68;;;;;;;13.85;100.00;97973.44;5007558;28;20434;-61
2024/04/06 05:26:41;;;;;;;73.30;9.05;;;;;;;14.13;100.00;97974.72;5005650;28;20103;-62
2024/04/06 05:29:07;;;;;;;54.78;8.02;;;;;;;14.18;100.00;97978.97;5005573;28;20026;-64
2024/04/06 05:31:32;;;;;;;89.28;9.73;;;;;;;14.31;100.00;97982.25;5001861;28;20099;-62
2024/04/06 05:33:57;;;;;;;42.65;7.22;;;;;;;14.94;100.00;97983.66;5004526;28;20027;-63
2024/04/06 05:36:23;;;;;;;54.20;8.23;;;;;;;16.83;100.00;97984.28;5006269;28;20041;-64
2024/04/06 05:38:49;;;;;;;52.30;7.72;;;;;;;17.88;100.00;97980.19;5006293;28;20406;-64
2024/04/06 05:41:14;;;;;;;50.70;7.93;;;;;;;18.91;100.00;97986.31;5008615;28;20033;-64
2024/04/06 05:43:39;;;;;;;44.80;8.75;;;;;;;19.88;100.00;97986.97;5009709;28;20401;-63
2024/04/06 05:46:05;;;;;;;53.58;9.32;;;;;;;21.41;100.00;97982.09;5010215;28;20048;-61
2024/04/06 05:48:31;;;;;;;75.53;12.10;;;;;;;22.14;100.00;97975.88;5009584;28;20064;-62
2024/04/06 05:50:59;;;;;;;68.82;11.00;;;;;;;22.34;100.00;97979.31;5008176;28;20042;-61
2024/04/06 05:53:25;;;;;;;55.50;10.68;;;;;;;23.09;100.00;97970.94;5009432;28;20087;-63
2024/04/06 05:55:50;;;;;;;36.20;8.88;;;;;;;23.23;99.12;97978.13;5010343;28;20065;-63
2024/04/06 05:58:16;;;;;;;30.80;7.93;;;;;;;22.44;100.00;97977.03;5011737;28;20091;-62
2024/04/06 06:00:41;;;;;;;72.47;10.43;;;;;;;23.92;93.48;97969.00;5008105;28;20054;-62
2024/04/06 06:03:06;;;;;;;50.22;8.52;;;;;;;24.40;84.21;97962.69;5009738;28;20034;-61
2024/04/06 06:05:32;;;;;;;60.60;9.13;;;;;;;25.50;70.54;97957.66;5009988;28;20096;-63
2024/04/06 06:07:57;;;;;;;43.95;8.50;;;;;;;25.27;72.72;97959.16;5010905;28;20037;-63
2024/04/06 06:10:23;;;;;;;43.85;8.57;;;;;;;26.10;65.97;97960.78;5010208;28;20048;-64
2024/04/06 06:12:48;;;;;;;31.25;8.70;;;;;;;25.91;66.42;97973.66;5010690;28;20565;-61
2024/04/06 06:15:13;;;;;;;37.05;8.25;;;;;;;25.00;75.12;97976.75;5010716;28;20299;-65
2024/04/06 06:17:40;;;;;;;56.95;9.73;;;;;;;26.65;62.32;97981.97;5010768;28;20128;-62
2024/04/06 06:20:05;;;;;;;36.33;7.82;;;;;;;25.37;66.29;97984.19;5010803;28;20025;-62
2024/04/06 06:22:31;;;;;;;46.55;9.05;;;;;;;24.88;78.61;97996.16;5007738;28;20040;-62
2024/04/06 06:24:57;;;;;;;42.08;8.43;;;;;;;25.24;75.66;97989.47;5011421;28;20430;-64
2024/04/06 06:27:23;;;;;;;31.42;8.68;;;;;;;27.04;62.23;97983.78;5012457;28;20072;-61
2024/04/06 06:29:48;;;;;;;40.60;8.30;;;;;;;28.13;54.43;97986.53;5011905;28;20022;-64
2024/04/06 06:32:14;;;;;;;46.00;9.13;;;;;;;28.58;50.50;97985.00;5008929;28;20044;-63
2024/04/06 06:34:40;;;;;;;44.47;9.35;;;;;;;29.98;45.65;97994.41;5009719;28;20045;-63
2024/04/06 06:37:05;;;;;;;38.75;9.07;;;;;;;29.53;44.73;97987.41;5008282;28;20030;-61
2024/04/06 06:39:31;;;;;;;55.88;10.40;;;;;;;30.86;42.13;97987.94;5011319;28;20484;-63
2024/04/06 06:41:56;;;;;;;36.30;8.65;;;;;;;30.54;41.74;97984.34;5008748;28;20038;-61
2024/04/06 06:44:21;;;;;;;30.50;7.75;;;;;;;30.85;42.04;97979.06;5008078;28;20124;-63
2024/04/06 06:46:47;;;;;;;34.38;8.60;;;;;;;30.86;40.31;97985.25;5009347;28;20569;-64
2024/04/06 06:49:12;;;;;;;33.38;7.57;;;;;;;31.94;38.41;97988.22;5011202;28;20030;-64
2024/04/06 06:51:38;;;;;;;45.55;9.40;;;;;;;32.39;37.50;97985.06;4998112;28;20552;-64
2024/04/06 06:54:04;;;;;;;36.05;8.57;;;;;;;33.10;35.28;97994.47;5008318;28;20037;-62
2024/04/06 06:56:30;;;;;;;40.28;9.07;;;;;;;34.53;33.29;97986.75;5007167;28;20045;-63
2024/04/06 06:58:55;;;;;;;29.08;8.07;;;;;;;34.26;34.30;97975.09;5009110;28;20032;-63
2024/04/06 07:01:22;;;;;;;29.35;7.90;;;;;;;32.77;35.13;97977.03;5005966;28;20284;-65
2024/04/06 07:03:47;;;;;;;25.33;7.75;;;;;;;34.05;34.62;97978.97;5007247;28;20033;-65
2024/04/06 07:06:12;;;;;;;26.02;7.63;;;;;;;35.43;32.61;97979.25;5006995;28;20034;-63
2024/04/06 07:08:44;;;;;;;37.15;8.57;;;;;;;37.13;29.72;97979.66;5009342;28;20027;-63
2024/04/06 07:11:10;;;;;;;25.08;6.95;;;;;;;35.87;30.93;97978.16;5007705;28;20468;-64
2024/04/06 07:13:36;;;;;;;29.77;7.60;;;;;;;37.21;29.79;97973.38;5007695;28;20485;-65
2024/04/06 07:16:02;;;;;;;25.70;6.65;;;;;;;37.12;29.53;97973.41;5007100;28;20042;-64
2024/04/06 07:18:27;;;;;;;26.27;6.97;;;;;;;37.29;29.32;97967.06;5008657;28;20191;-64
2024/04/06 07:20:52;;;;;;;24.80;6.85;;;;;;;36.12;29.86;97972.75;5007137;28;20130;-60
2024/04/06 07:23:17;;;;;;;33.17;7.13;;;;;;;36.74;30.31;97965.91;5007702;28;20517;-62
2024/04/06 07:25:43;;;;;;;41.05;7.78;;;;;;;38.13;28.26;97962.78;5005504;28;20376;-63
2024/04/06 07:28:08;;;;;;;31.73;6.85;;;;;;;38.14;28.38;97964.44;5007952;28;20044;-63
2024/04/06 07:30:33;;;;;;;38.97;7.37;;;;;;;38.59;27.29;97971.88;5004232;28;20052;-62
2024/04/06 07:32:59;;;;;;;27.17;6.53;;;;;;;37.08;28.23;97971.22;5006468;28;20273;-62
2024/04/06 07:35:24;;;;;;;28.57;6.33;;;;;;;37.76;28.04;97973.41;5006492;28;20265;-62
2024/04/06 07:37:49;;;;;;;25.98;6.13;;;;;;;37.98;27.71;97973.56;5009745;28;20314;-65
2024/04/06 07:40:15;;;;;;;31.40;6.97;;;;;;;39.31;27.08;97972.19;5010228;28;20129;-63
2024/04/06 07:42:40;;;;;;;34.70;7.15;;;;;;;38.47;27.39;97976.91;5007346;28;20808;-62
2024/04/06 07:45:05;;;;;;;21.70;5.47;;;;;;;36.63;29.46;97979.81;5010179;28;20030;-63
2024/04/06 07:47:31;;;;;;;31.60;6.57;;;;;;;37.57;28.37;97982.81;5007016;28;20284;-60
2024/04/06 07:49:56;;;;;;;21.23;5.82;;;;;;;37.73;28.79;97981.88;5009333;28;20397;-64
2024/04/06 07:52:21;;;;;;;19.63;5.40;;;;;;;37.81;28.58;97995.41;5009240;28;20473;-62
2024/04/06 07:54:48;;;;;;;35.58;6.68;;;;;;;37.46;28.78;97990.34;5008510;28;20175;-63
2024/04/06 07:57:13;;;;;;;24.55;5.53;;;;;;;38.57;27.30;97988.31;5006582;28;20045;-62
2024/04/06 07:59:38;;;;;;;44.70;7.43;;;;;;;37.05;28.10;97994.09;5008276;28;20040;-61
2024/04/06 08:02:04;;;;;;;38.28;7.20;;;;;;;39.45;26.23;97997.66;5004408;28;20811;-62
2024/04/06 08:04:29;;;;;;;32.45;6.30;;;;;;;40.39;24.81;98002.34;5008574;28;20576;-61
2024/04/06 08:06:55;;;;;;;23.80;5.00;;;;;;;39.01;26.18;97997.53;5008518;28;20026;-60
2024/04/06 08:09:21;;;;;;;37.13;6.40;;;;;;;40.92;24.60;98006.53;5008153;28;20152;-63
2024/04/06 08:11:46;;;;;;;41.53;6.78;;;;;;;39.76;25.36;98010.16;5009478;28;20037;-62
2024/04/06 08:14:12;;;;;;;31.50;6.17;;;;;;;40.01;25.27;98009.81;5004732;28;20060;-62
2024/04/06 08:16:40;;;;;;;42.05;6.72;;;;;;;41.18;23.97;98013.97;5008373;28;20288;-62
2024/04/06 08:19:05;;;;;;;33.28;5.95;;;;;;;41.31;24.21;98010.50;5008042;28;20490;-64
2024/04/06 08:21:31;;;;;;;30.08;6.15;;;;;;;40.92;24.68;98014.72;5006320;28;20100;-62
2024/04/06 08:23:56;;;;;;;31.03;5.90;;;;;;;41.26;24.72;98018.44;5009110;28;20028;-61
2024/04/06 08:26:21;;;;;;;36.70;6.30;;;;;;;38.26;25.31;98009.16;5007626;28;20291;-64
2024/04/06 08:28:49;;;;;;;38.83;6.47;;;;;;;39.13;24.92;98008.78;5007767;28;20322;-63
2024/04/06 08:31:14;;;;;;;31.33;6.10;;;;;;;40.50;23.91;98009.16;5007337;28;20276;-62
2024/04/06 08:33:39;;;;;;;48.10;7.47;;;;;;;41.36;22.87;98007.16;5004593;28;20084;-61
2024/04/06 08:36:05;;;;;;;35.67;5.93;;;;;;;36.90;25.84;98002.09;5006065;28;20045;-62
2024/04/06 08:38:30;;;;;;;32.25;5.68;;;;;;;38.37;24.50;98001.59;5009771;28;20261;-62
2024/04/06 08:41:01;;;;;;;46.67;7.03;;;;;;;38.61;24.97;97995.09;5004822;28;20172;-63
2024/04/06 08:43:31;;;;;;;29.40;5.80;;;;;;;38.47;25.61;97998.63;5008185;28;20276;-62
2024/04/06 08:45:57;;;;;;;30.52;5.72;;;;;;;37.55;25.17;98001.16;5007632;28;20073;-62
2024/04/06 08:48:23;;;;;;;33.83;6.03;;;;;;;35.16;26.56;97998.28;5006456;28;20072;-61
2024/04/06 08:50:49;;;;;;;65.40;8.63;;;;;;;35.73;26.66;98003.19;5004617;28;20041;-62
2024/04/06 08:53:15;;;;;;;28.58;5.13;;;;;;;38.47;24.24;98001.34;5008422;28;20053;-62
2024/04/06 08:55:41;;;;;;;49.72;7.60;;;;;;;40.09;23.69;98003.38;5004555;28;20577;-63
2024/04/06 08:58:06;;;;;;;34.22;6.07;;;;;;;38.58;24.34;98002.75;5007902;28;20499;-62
2024/04/06 09:00:32;;;;;;;31.15;5.70;;;;;;;35.31;26.72;97993.09;5004042;28;20498;-64
2024/04/06 09:02:57;;;;;;;35.65;6.15;;;;;;;36.44;26.89;97997.28;5007971;28;20037;-62
2024/04/06 09:05:23;;;;;;;27.48;5.53;;;;;;;37.47;26.80;98008.31;5005416;28;20042;-61
2024/04/06 09:07:51;;;;;;;33.15;5.50;;;;;;;37.68;26.29;97989.72;5005414;28;20060;-61
2024/04/06 09:10:16;;;;;;;37.50;6.25;;;;;;;37.24;25.89;97994.72;5005500;28;20133;-62
2024/04/06 09:12:42;;;;;;;54.40;7.63;;;;;;;37.24;25.89;97987.44;5004603;28;20048;-63
2024/04/06 09:15:12;;;;;;;36.03;6.28;;;;;;;36.44;26.12;97981.88;5007030;28;20033;-59
2024/04/06 09:17:38;;;;;;;37.88;6.10;;;;;;;36.55;26.30;97991.50;5003640;28;20035;-63
2024/04/06 09:20:04;;;;;;;43.03;6.95;;;;;;;36.37;26.99;97980.88;5007436;28;20041;-61
2024/04/06 09:22:29;;;;;;;27.95;5.45;;;;;;;37.26;25.77;97987.25;5006899;28;20048;-62
2024/04/06 09:24:55;;;;;;;37.67;6.27;;;;;;;35.53;26.83;97985.38;5005235;28;20033;-63
2024/04/06 09:27:20;;;;;;;27.45;5.70;;;;;;;34.20;27.22;97986.50;5004356;28;20285;-63
2024/04/06 09:29:48;;;;;;;50.20;7.20;;;;;;;35.05;25.13;97980.47;5003452;28;20036;-61
2024/04/06 09:32:18;;;;;;;38.08;6.07;;;;;;;37.85;23.67;97985.88;5007177;28;20038;-61
2024/04/06 09:34:49;;;;;;;48.35;7.03;;;;;;;36.93;24.72;97982.78;5007347;28;20374;-63
2024/04/06 09:37:18;;;;;;;;;;;;;;;38.08;23.62;97978.75;5004930;28;20030;-63
2024/04/06 09:39:44;;;;;;;52.05;7.40;;;;;;;39.63;23.13;97974.66;5006468;28;19921;-62
2024/04/06 09:42:09;;;;;;;40.22;6.10;;;;;;;39.53;22.72;97978.53;5005079;28;20048;-64
2024/04/06 09:44:35;;;;;;;44.28;6.43;;;;;;;39.30;22.33;97974.06;5007775;28;20413;-61
2024/04/06 09:47:02;;;;;;;32.58;5.75;;;;;;;40.70;21.62;97980.16;5006392;28;20057;-63
2024/04/06 09:49:30;;;;;;;39.70;6.53;;;;;;;37.72;24.44;97972.06;5007490;28;20106;-62
2024/04/06 09:51:55;;;;;;;31.60;5.80;;;;;;;37.28;23.31;97973.53;5005945;28;20041;-62
2024/04/06 09:54:21;;;;;;;37.78;5.90;;;;;;;37.52;23.82;97969.81;5006328;28;20040;-61
2024/04/06 09:56:49;;;;;;;41.65;6.70;;;;;;;38.34;23.31;97978.38;5004834;28;20411;-62
2024/04/06 09:59:27;;;;;;;41.53;6.65;;;;;;;35.50;24.79;97974.00;5005060;28;20022;-62
2024/04/06 10:01:54;;;;;;;48.13;7.20;;;;;;;37.71;22.70;97959.53;5004111;28;20073;-60
2024/04/06 10:04:34;;;;;;;35.97;6.03;;;;;;;37.98;23.82;97955.41;5006199;28;20018;-62
2024/04/06 10:07:06;;;;;;;37.10;5.93;;;;;;;38.71;23.59;97951.34;5005815;28;20378;-61
2024/04/06 10:09:32;;;;;;;43.78;6.65;;;;;;;38.56;23.57;97937.75;5005611;28;20115;-63
2024/04/06 10:11:59;;;;;;;41.95;6.70;;;;;;;36.86;23.75;97955.56;5005321;28;20052;-64
2024/04/06 10:14:26;;;;;;;37.08;6.15;;;;;;;35.70;25.30;97953.81;5004428;28;20029;-65
2024/04/06 10:16:52;;;;;;;50.53;7.15;;;;;;;35.06;26.54;97940.75;5005359;28;20046;-60
2024/04/06 10:19:18;;;;;;;47.72;7.03;;;;;;;36.19;24.77;97946.75;5007981;28;20587;-62
2024/04/06 10:21:46;;;;;;;65.72;8.13;;;;;;;35.26;27.50;97945.94;5004229;28;20041;-63
2024/04/06 10:24:13;;;;;;;42.35;6.60;;;;;;;36.35;25.67;97937.75;5006521;28;20032;-61
2024/04/06 10:26:46;;;;;;;53.17;7.65;;;;;;;38.71;22.39;97936.91;5006774;28;20441;-60
2024/04/06 10:29:14;;;;;;;42.60;6.13;;;;;;;38.67;22.60;97936.47;5007482;28;20679;-62
2024/04/06 10:31:41;;;;;;;46.22;6.50;;;;;;;38.17;22.67;97930.69;5004918;28;20120;-63
2024/04/06 10:34:07;;;;;;;44.55;6.75;;;;;;;38.94;21.97;97928.63;5008446;28;20033;-61
2024/04/06 10:36:32;;;;;;;45.33;6.57;;;;;;;38.42;23.04;97928.56;5008775;28;20038;-63
2024/04/06 10:38:57;;;;;;;39.35;6.18;;;;;;;38.29;22.53;97919.19;5008770;28;20105;-61
2024/04/06 10:41:23;;;;;;;45.58;6.57;;;;;;;35.29;24.55;97918.59;5007851;28;20049;-65
2024/04/06 10:43:49;;;;;;;57.10;7.47;;;;;;;35.71;25.01;97919.50;5011846;28;20034;-60
2024/04/06 10:46:15;;;;;;;40.28;6.25;;;;;;;36.08;24.04;97917.28;5005994;28;20563;-61
2024/04/06 10:48:41;;;;;;;62.67;8.15;;;;;;;35.05;24.63;97918.31;5010936;28;20566;-59
2024/04/06 10:51:07;;;;;;;42.95;6.60;;;;;;;35.65;23.99;97918.31;5007731;28;20043;-61
2024/04/06 10:53:33;;;;;;;41.28;6.22;;;;;;;36.29;23.29;97907.81;5006365;28;20040;-63
2024/04/06 10:55:58;;;;;;;47.05;6.85;;;;;;;35.96;23.67;97898.69;5008784;28;20052;-61
2024/04/06 10:58:24;;;;;;;38.63;6.07;;;;;;;35.86;25.19;97898.03;5009414;28;20025;-62
2024/04/06 11:00:49;;;;;;;79.95;9.75;;;;;;;35.00;26.45;97887.41;5007768;28;20135;-60
2024/04/06 11:03:14;;;;;;;49.22;6.93;;;;;;;35.02;27.27;97885.38;5008350;28;20021;-62
2024/04/06 11:05:40;;;;;;;53.05;6.65;;;;;;;34.06;26.21;97890.78;5010096;28;20260;-63
2024/04/06 11:08:06;;;;;;;48.33;6.60;;;;;;;33.78;25.16;97886.38;5009382;28;20038;-60
2024/04/06 11:10:33;;;;;;;54.65;7.22;;;;;;;35.71;23.11;97897.84;5008986;28;20061;-59
2024/04/06 11:12:59;;;;;;;35.10;5.60;;;;;;;37.08;22.49;97885.34;5009600;28;20115;-62